sensor_id;sensor_type;location;lat;lon;timestamp;pressure;altitude;pressure_sealevel;temperature;humidity
62634;BME280;48704;50.534;6.442;2023-05-02T00:00:35;95790.94;;;7.41;100.00
62634;BME280;48704;50.534;6.442;2023-05-02T00:03:01;95786.81;;;7.23;100.00
62634;BME280;48704;50.534;6.442;2023-05-02T00:05:27;95788.88;;;7.32;100.00
62634;BME280;48704;50.534;6.442;2023-05-02T00:07:53;95782.56;;;7.31;100.00
62634;BME280;48704;50.534;6.442;2023-05-02T00:10:18;95790.69;;;7.26;100.00
62634;BME280;48704;50.534;6.442;2023-05-02T00:12:43;95786.44;;;7.34;100.00
62634;BME280;48704;50.534;6.442;2023-05-02T00:15:09;95785.97;;;7.35;100.00
62634;BME280;48704;50.534;6.442;2023-05-02T00:17:34;95782.38;;;7.26;100.00
62634;BME280;48704;50.534;6.442;2023-05-02T00:20:00;95789.06;;;7.37;100.00
62634;BME280;48704;50.534;6.442;2023-05-02T00:22:25;95789.41;;;7.40;100.00
62634;BME280;48704;50.534;6.442;2023-05-02T00:24:55;95792.78;;;7.44;100.00
62634;BME280;48704;50.534;6.442;2023-05-02T00:27:21;95787.06;;;7.38;100.00
62634;BME280;48704;50.534;6.442;2023-05-02T00:29:46;95788.31;;;7.37;100.00
62634;BME280;48704;50.534;6.442;2023-05-02T00:32:12;95788.09;;;7.31;100.00
62634;BME280;48704;50.534;6.442;2023-05-02T00:34:37;95784.38;;;7.25;100.00
62634;BME280;48704;50.534;6.442;2023-05-02T00:37:02;95787.41;;;7.40;100.00
62634;BME280;48704;50.534;6.442;2023-05-02T00:39:27;95787.84;;;7.38;100.00
62634;BME280;48704;50.534;6.442;2023-05-02T00:41:59;95787.06;;;7.38;100.00
62634;BME280;48704;50.534;6.442;2023-05-02T00:44:25;95784.63;;;7.40;100.00
62634;BME280;48704;50.534;6.442;2023-05-02T00:46:50;95789.00;;;7.28;100.00
62634;BME280;48704;50.534;6.442;2023-05-02T00:49:17;95792.84;;;7.09;100.00
62634;BME280;48704;50.534;6.442;2023-05-02T00:51:43;95787.97;;;7.13;100.00
62634;BME280;48704;50.534;6.442;2023-05-02T00:54:08;95787.59;;;7.02;100.00
62634;BME280;48704;50.534;6.442;2023-05-02T00:56:35;95793.50;;;6.91;100.00
62634;BME280;48704;50.534;6.442;2023-05-02T00:59:00;95797.38;;;7.16;100.00
62634;BME280;48704;50.534;6.442;2023-05-02T01:12:01;95811.56;;;7.18;100.00
62634;BME280;48704;50.534;6.442;2023-05-02T01:14:33;95814.66;;;7.20;100.00
62634;BME280;48704;50.534;6.442;2023-05-02T01:17:02;95813.63;;;7.26;100.00
62634;BME280;48704;50.534;6.442;2023-05-02T01:19:41;95813.44;;;7.21;100.00
62634;BME280;48704;50.534;6.442;2023-05-02T01:22:10;95819.28;;;7.23;100.00
62634;BME280;48704;50.534;6.442;2023-05-02T01:24:53;95818.72;;;7.28;100.00
62634;BME280;48704;50.534;6.442;2023-05-02T01:29:55;95817.38;;;7.32;100.00
62634;BME280;48704;50.534;6.442;2023-05-02T01:32:22;95819.75;;;7.21;100.00
62634;BME280;48704;50.534;6.442;2023-05-02T01:34:51;95825.38;;;7.30;100.00
62634;BME280;48704;50.534;6.442;2023-05-02T01:37:17;95829.44;;;7.38;100.00
62634;BME280;48704;50.534;6.442;2023-05-02T01:39:45;95832.06;;;7.20;100.00
62634;BME280;48704;50.534;6.442;2023-05-02T01:42:12;95834.50;;;7.18;100.00
62634;BME280;48704;50.534;6.442;2023-05-02T01:44:41;95832.41;;;7.10;100.00
62634;BME280;48704;50.534;6.442;2023-05-02T01:47:08;95824.00;;;7.13;100.00
62634;BME280;48704;50.534;6.442;2023-05-02T01:49:34;95826.19;;;7.18;100.00
62634;BME280;48704;50.534;6.442;2023-05-02T01:52:07;95832.72;;;7.24;100.00
62634;BME280;48704;50.534;6.442;2023-05-02T01:54:35;95829.06;;;6.93;100.00
62634;BME280;48704;50.534;6.442;2023-05-02T01:57:04;95823.66;;;7.11;100.00
62634;BME280;48704;50.534;6.442;2023-05-02T01:59:32;95835.16;;;7.22;100.00
62634;BME280;48704;50.534;6.442;2023-05-02T02:01:58;95836.81;;;7.20;100.00
62634;BME280;48704;50.534;6.442;2023-05-02T02:04:25;95845.38;;;7.13;100.00
62634;BME280;48704;50.534;6.442;2023-05-02T02:06:56;95838.50;;;7.17;100.00
62634;BME280;48704;50.534;6.442;2023-05-02T02:09:22;95846.16;;;7.13;100.00
62634;BME280;48704;50.534;6.442;2023-05-02T02:11:52;95850.16;;;7.12;100.00
62634;BME280;48704;50.534;6.442;2023-05-02T02:14:24;95854.66;;;6.84;100.00
62634;BME280;48704;50.534;6.442;2023-05-02T02:17:00;95855.22;;;6.92;100.00
62634;BME280;48704;50.534;6.442;2023-05-02T02:19:27;95852.34;;;6.83;100.00
62634;BME280;48704;50.534;6.442;2023-05-02T02:21:54;95854.22;;;6.86;100.00
62634;BME280;48704;50.534;6.442;2023-05-02T02:24:22;95866.88;;;6.74;100.00
62634;BME280;48704;50.534;6.442;2023-05-02T02:26:48;95860.81;;;6.66;100.00
62634;BME280;48704;50.534;6.442;2023-05-02T02:29:13;95867.66;;;6.75;100.00
62634;BME280;48704;50.534;6.442;2023-05-02T02:31:38;95867.25;;;6.63;100.00
62634;BME280;48704;50.534;6.442;2023-05-02T02:34:04;95866.09;;;6.74;100.00
62634;BME280;48704;50.534;6.442;2023-05-02T02:36:34;95879.16;;;6.86;100.00
62634;BME280;48704;50.534;6.442;2023-05-02T02:41:47;95873.28;;;6.84;100.00
62634;BME280;48704;50.534;6.442;2023-05-02T02:47:42;95870.53;;;6.71;100.00
62634;BME280;48704;50.534;6.442;2023-05-02T02:53:24;95874.22;;;6.55;100.00
62634;BME280;48704;50.534;6.442;2023-05-02T03:01:14;95868.91;;;6.48;100.00
62634;BME280;48704;50.534;6.442;2023-05-02T03:03:43;95875.00;;;6.43;100.00
62634;BME280;48704;50.534;6.442;2023-05-02T03:06:08;95861.97;;;6.31;100.00
62634;BME280;48704;50.534;6.442;2023-05-02T03:08:38;95874.44;;;6.48;100.00
62634;BME280;48704;50.534;6.442;2023-05-02T03:11:04;95890.59;;;6.50;100.00
62634;BME280;48704;50.534;6.442;2023-05-02T03:13:30;95887.63;;;6.44;100.00
62634;BME280;48704;50.534;6.442;2023-05-02T03:18:45;95893.47;;;6.33;100.00
62634;BME280;48704;50.534;6.442;2023-05-02T03:21:10;95894.72;;;6.45;100.00
62634;BME280;48704;50.534;6.442;2023-05-02T03:23:35;95892.38;;;6.44;100.00
62634;BME280;48704;50.534;6.442;2023-05-02T03:26:01;95893.16;;;6.44;100.00
62634;BME280;48704;50.534;6.442;2023-05-02T03:28:27;95898.69;;;6.44;100.00
62634;BME280;48704;50.534;6.442;2023-05-02T03:30:52;95904.91;;;6.48;100.00
62634;BME280;48704;50.534;6.442;2023-05-02T03:33:17;95901.44;;;6.31;100.00
62634;BME280;48704;50.534;6.442;2023-05-02T03:35:42;95903.22;;;6.38;100.00
62634;BME280;48704;50.534;6.442;2023-05-02T03:38:08;95901.59;;;6.28;100.00
62634;BME280;48704;50.534;6.442;2023-05-02T03:40:33;95902.44;;;6.37;100.00
62634;BME280;48704;50.534;6.442;2023-05-02T03:42:58;95896.78;;;6.03;100.00
62634;BME280;48704;50.534;6.442;2023-05-02T03:45:24;95910.22;;;6.30;100.00
62634;BME280;48704;50.534;6.442;2023-05-02T03:47:49;95909.75;;;6.19;100.00
62634;BME280;48704;50.534;6.442;2023-05-02T03:50:14;95912.59;;;6.02;100.00
62634;BME280;48704;50.534;6.442;2023-05-02T03:52:40;95904.66;;;6.04;100.00
62634;BME280;48704;50.534;6.442;2023-05-02T03:55:05;95905.09;;;6.16;100.00
62634;BME280;48704;50.534;6.442;2023-05-02T03:57:32;95909.63;;;6.10;100.00
62634;BME280;48704;50.534;6.442;2023-05-02T03:59:57;95914.41;;;6.22;100.00
62634;BME280;48704;50.534;6.442;2023-05-02T04:02:22;95912.66;;;6.28;100.00
62634;BME280;48704;50.534;6.442;2023-05-02T04:04:48;95907.22;;;6.24;100.00
62634;BME280;48704;50.534;6.442;2023-05-02T04:07:13;95915.28;;;6.19;100.00
62634;BME280;48704;50.534;6.442;2023-05-02T04:09:42;95923.94;;;6.21;100.00
62634;BME280;48704;50.534;6.442;2023-05-02T04:12:08;95920.72;;;6.22;100.00
62634;BME280;48704;50.534;6.442;2023-05-02T04:14:33;95921.06;;;6.37;100.00
62634;BME280;48704;50.534;6.442;2023-05-02T04:16:58;95930.34;;;6.43;100.00
62634;BME280;48704;50.534;6.442;2023-05-02T04:19:23;95928.69;;;6.46;100.00
62634;BME280;48704;50.534;6.442;2023-05-02T04:21:49;95926.47;;;6.41;100.00
62634;BME280;48704;50.534;6.442;2023-05-02T04:24:14;95933.00;;;6.34;100.00
62634;BME280;48704;50.534;6.442;2023-05-02T04:26:39;95937.00;;;6.58;100.00
62634;BME280;48704;50.534;6.442;2023-05-02T04:29:05;95931.03;;;6.47;100.00
62634;BME280;48704;50.534;6.442;2023-05-02T04:31:31;95940.13;;;6.60;100.00
62634;BME280;48704;50.534;6.442;2023-05-02T04:33:56;95945.31;;;6.46;100.00
62634;BME280;48704;50.534;6.442;2023-05-02T04:36:23;95952.63;;;6.52;100.00
62634;BME280;48704;50.534;6.442;2023-05-02T04:38:48;95952.19;;;6.66;100.00
62634;BME280;48704;50.534;6.442;2023-05-02T04:41:13;95953.63;;;6.58;100.00
62634;BME280;48704;50.534;6.442;2023-05-02T04:43:39;95954.84;;;6.57;100.00
62634;BME280;48704;50.534;6.442;2023-05-02T04:46:04;95960.81;;;6.68;100.00
62634;BME280;48704;50.534;6.442;2023-05-02T04:48:30;95958.72;;;6.72;100.00
62634;BME280;48704;50.534;6.442;2023-05-02T04:50:55;95960.72;;;6.59;100.00
62634;BME280;48704;50.534;6.442;2023-05-02T04:53:21;95965.47;;;6.84;100.00
62634;BME280;48704;50.534;6.442;2023-05-02T04:55:47;95964.91;;;6.51;100.00
62634;BME280;48704;50.534;6.442;2023-05-02T04:58:12;95959.94;;;6.59;100.00
62634;BME280;48704;50.534;6.442;2023-05-02T05:00:38;95970.03;;;6.65;100.00
62634;BME280;48704;50.534;6.442;2023-05-02T05:03:03;95977.22;;;6.63;100.00
62634;BME280;48704;50.534;6.442;2023-05-02T05:05:30;95970.44;;;6.51;100.00
62634;BME280;48704;50.534;6.442;2023-05-02T05:07:56;95975.31;;;6.47;100.00
62634;BME280;48704;50.534;6.442;2023-05-02T05:10:21;95969.34;;;6.61;100.00
62634;BME280;48704;50.534;6.442;2023-05-02T05:12:46;95979.19;;;6.75;100.00
62634;BME280;48704;50.534;6.442;2023-05-02T05:15:13;95989.06;;;6.63;100.00
62634;BME280;48704;50.534;6.442;2023-05-02T05:17:39;95995.59;;;6.69;100.00
62634;BME280;48704;50.534;6.442;2023-05-02T05:20:05;95998.13;;;6.51;100.00
62634;BME280;48704;50.534;6.442;2023-05-02T05:22:30;96000.47;;;6.53;100.00
62634;BME280;48704;50.534;6.442;2023-05-02T05:24:56;95992.59;;;6.51;100.00
62634;BME280;48704;50.534;6.442;2023-05-02T05:27:21;96005.22;;;6.52;100.00
62634;BME280;48704;50.534;6.442;2023-05-02T05:29:46;96008.78;;;6.53;100.00
62634;BME280;48704;50.534;6.442;2023-05-02T05:32:12;96002.13;;;6.76;100.00
62634;BME280;48704;50.534;6.442;2023-05-02T05:34:37;96009.75;;;6.46;100.00
62634;BME280;48704;50.534;6.442;2023-05-02T05:37:03;96006.78;;;6.53;100.00
62634;BME280;48704;50.534;6.442;2023-05-02T05:39:28;96011.97;;;6.51;100.00
62634;BME280;48704;50.534;6.442;2023-05-02T05:41:54;96026.81;;;6.45;100.00
62634;BME280;48704;50.534;6.442;2023-05-02T05:44:19;96017.06;;;6.53;100.00
62634;BME280;48704;50.534;6.442;2023-05-02T05:46:46;96031.91;;;6.46;100.00
62634;BME280;48704;50.534;6.442;2023-05-02T05:49:11;96038.13;;;6.50;100.00
62634;BME280;48704;50.534;6.442;2023-05-02T05:51:37;96036.56;;;6.49;100.00
62634;BME280;48704;50.534;6.442;2023-05-02T05:54:02;96044.66;;;6.56;100.00
62634;BME280;48704;50.534;6.442;2023-05-02T05:56:28;96047.13;;;6.80;100.00
62634;BME280;48704;50.534;6.442;2023-05-02T05:58:53;96046.44;;;6.76;100.00
62634;BME280;48704;50.534;6.442;2023-05-02T06:01:19;96047.91;;;6.67;100.00
62634;BME280;48704;50.534;6.442;2023-05-02T06:03:44;96053.84;;;6.53;100.00
62634;BME280;48704;50.534;6.442;2023-05-02T06:06:09;96051.88;;;6.79;100.00
62634;BME280;48704;50.534;6.442;2023-05-02T06:08:34;96051.91;;;6.92;100.00
62634;BME280;48704;50.534;6.442;2023-05-02T06:11:00;96051.00;;;6.82;100.00
62634;BME280;48704;50.534;6.442;2023-05-02T06:13:25;96055.56;;;6.89;100.00
62634;BME280;48704;50.534;6.442;2023-05-02T06:15:50;96062.84;;;6.83;100.00
62634;BME280;48704;50.534;6.442;2023-05-02T06:18:15;96061.31;;;6.82;100.00
62634;BME280;48704;50.534;6.442;2023-05-02T06:20:41;96058.19;;;6.80;100.00
62634;BME280;48704;50.534;6.442;2023-05-02T06:23:06;96068.59;;;6.76;100.00
62634;BME280;48704;50.534;6.442;2023-05-02T06:25:31;96065.09;;;6.88;100.00
62634;BME280;48704;50.534;6.442;2023-05-02T06:27:58;96073.97;;;6.95;100.00
62634;BME280;48704;50.534;6.442;2023-05-02T06:30:23;96078.13;;;6.75;100.00
62634;BME280;48704;50.534;6.442;2023-05-02T06:32:48;96083.69;;;6.87;100.00
62634;BME280;48704;50.534;6.442;2023-05-02T06:35:13;96083.56;;;6.78;100.00
62634;BME280;48704;50.534;6.442;2023-05-02T06:37:39;96080.63;;;6.98;100.00
62634;BME280;48704;50.534;6.442;2023-05-02T06:40:04;96086.56;;;6.84;100.00
62634;BME280;48704;50.534;6.442;2023-05-02T06:42:30;96089.53;;;6.77;100.00
62634;BME280;48704;50.534;6.442;2023-05-02T06:44:55;96095.22;;;6.86;100.00
62634;BME280;48704;50.534;6.442;2023-05-02T06:47:21;96097.66;;;7.09;100.00
62634;BME280;48704;50.534;6.442;2023-05-02T06:49:48;96097.44;;;6.91;100.00
62634;BME280;48704;50.534;6.442;2023-05-02T06:52:13;96113.50;;;6.83;100.00
62634;BME280;48704;50.534;6.442;2023-05-02T06:54:39;96104.06;;;6.81;100.00
62634;BME280;48704;50.534;6.442;2023-05-02T06:57:06;96115.78;;;6.72;100.00
62634;BME280;48704;50.534;6.442;2023-05-02T06:59:32;96123.41;;;6.26;100.00
62634;BME280;48704;50.534;6.442;2023-05-02T07:01:57;96127.44;;;6.38;100.00
62634;BME280;48704;50.534;6.442;2023-05-02T07:04:22;96131.81;;;6.23;100.00
62634;BME280;48704;50.534;6.442;2023-05-02T07:06:47;96137.97;;;6.43;100.00
62634;BME280;48704;50.534;6.442;2023-05-02T07:09:13;96134.31;;;6.46;100.00
62634;BME280;48704;50.534;6.442;2023-05-02T07:11:38;96145.03;;;6.60;100.00
62634;BME280;48704;50.534;6.442;2023-05-02T07:14:03;96139.78;;;6.50;100.00
62634;BME280;48704;50.534;6.442;2023-05-02T07:16:28;96142.00;;;6.26;100.00
62634;BME280;48704;50.534;6.442;2023-05-02T07:18:54;96154.44;;;6.34;100.00
62634;BME280;48704;50.534;6.442;2023-05-02T07:21:19;96153.44;;;6.69;100.00
62634;BME280;48704;50.534;6.442;2023-05-02T07:23:44;96155.59;;;6.49;100.00
62634;BME280;48704;50.534;6.442;2023-05-02T07:26:10;96161.28;;;6.58;100.00
62634;BME280;48704;50.534;6.442;2023-05-02T07:28:35;96167.38;;;6.53;100.00
62634;BME280;48704;50.534;6.442;2023-05-02T07:31:00;96163.94;;;6.33;100.00
62634;BME280;48704;50.534;6.442;2023-05-02T07:33:25;96157.66;;;6.61;100.00
62634;BME280;48704;50.534;6.442;2023-05-02T07:35:51;96168.97;;;6.67;100.00
62634;BME280;48704;50.534;6.442;2023-05-02T07:38:16;96165.88;;;6.78;100.00
62634;BME280;48704;50.534;6.442;2023-05-02T07:40:42;96174.25;;;6.61;100.00
62634;BME280;48704;50.534;6.442;2023-05-02T07:43:08;96171.25;;;6.56;100.00
62634;BME280;48704;50.534;6.442;2023-05-02T07:45:33;96169.97;;;6.44;100.00
62634;BME280;48704;50.534;6.442;2023-05-02T07:47:59;96173.84;;;6.76;100.00
62634;BME280;48704;50.534;6.442;2023-05-02T07:50:24;96173.41;;;6.64;100.00
62634;BME280;48704;50.534;6.442;2023-05-02T07:52:51;96181.34;;;6.91;100.00
62634;BME280;48704;50.534;6.442;2023-05-02T07:55:16;96171.59;;;6.99;100.00
62634;BME280;48704;50.534;6.442;2023-05-02T07:57:41;96176.97;;;6.78;100.00
62634;BME280;48704;50.534;6.442;2023-05-02T08:00:08;96177.84;;;6.75;100.00
62634;BME280;48704;50.534;6.442;2023-05-02T08:02:34;96184.13;;;7.04;100.00
62634;BME280;48704;50.534;6.442;2023-05-02T08:05:01;96187.69;;;7.17;100.00
62634;BME280;48704;50.534;6.442;2023-05-02T08:07:26;96182.94;;;7.05;100.00
62634;BME280;48704;50.534;6.442;2023-05-02T08:09:52;96187.13;;;7.10;100.00
62634;BME280;48704;50.534;6.442;2023-05-02T08:12:17;96183.41;;;7.29;100.00
62634;BME280;48704;50.534;6.442;2023-05-02T08:14:42;96189.72;;;7.29;100.00
62634;BME280;48704;50.534;6.442;2023-05-02T08:17:08;96190.03;;;7.44;100.00
62634;BME280;48704;50.534;6.442;2023-05-02T08:19:34;96191.25;;;7.43;100.00
62634;BME280;48704;50.534;6.442;2023-05-02T08:21:59;96192.50;;;7.67;100.00
62634;BME280;48704;50.534;6.442;2023-05-02T08:24:24;96192.97;;;7.79;100.00
62634;BME280;48704;50.534;6.442;2023-05-02T08:26:50;96193.06;;;7.75;100.00
62634;BME280;48704;50.534;6.442;2023-05-02T08:29:15;96195.59;;;8.08;100.00
62634;BME280;48704;50.534;6.442;2023-05-02T08:31:41;96199.41;;;7.76;100.00
62634;BME280;48704;50.534;6.442;2023-05-02T08:34:07;96203.25;;;8.03;100.00
62634;BME280;48704;50.534;6.442;2023-05-02T08:36:32;96201.81;;;7.99;100.00
62634;BME280;48704;50.534;6.442;2023-05-02T08:38:58;96202.25;;;8.57;100.00
62634;BME280;48704;50.534;6.442;2023-05-02T08:41:24;96204.06;;;8.51;100.00
62634;BME280;48704;50.534;6.442;2023-05-02T08:43:49;96211.84;;;8.31;100.00
62634;BME280;48704;50.534;6.442;2023-05-02T08:46:16;96209.50;;;8.29;100.00
62634;BME280;48704;50.534;6.442;2023-05-02T08:48:43;96213.31;;;8.23;100.00
62634;BME280;48704;50.534;6.442;2023-05-02T08:51:13;96219.66;;;8.11;100.00
62634;BME280;48704;50.534;6.442;2023-05-02T08:53:40;96220.75;;;8.26;100.00
62634;BME280;48704;50.534;6.442;2023-05-02T08:56:06;96225.78;;;7.93;100.00
62634;BME280;48704;50.534;6.442;2023-05-02T08:58:32;96220.97;;;8.19;100.00
62634;BME280;48704;50.534;6.442;2023-05-02T09:01:01;96230.28;;;8.50;100.00
62634;BME280;48704;50.534;6.442;2023-05-02T09:03:32;96234.63;;;8.26;100.00
62634;BME280;48704;50.534;6.442;2023-05-02T09:06:06;96243.44;;;8.12;100.00
62634;BME280;48704;50.534;6.442;2023-05-02T09:08:33;96234.44;;;7.69;100.00
62634;BME280;48704;50.534;6.442;2023-05-02T09:10:58;96244.66;;;7.72;100.00
62634;BME280;48704;50.534;6.442;2023-05-02T09:13:28;96250.09;;;8.01;100.00
62634;BME280;48704;50.534;6.442;2023-05-02T09:18:29;96262.75;;;8.02;100.00
62634;BME280;48704;50.534;6.442;2023-05-02T09:20:56;96261.09;;;8.05;100.00
62634;BME280;48704;50.534;6.442;2023-05-02T09:23:31;96261.50;;;8.29;100.00
62634;BME280;48704;50.534;6.442;2023-05-02T09:25:57;96268.75;;;8.01;100.00
62634;BME280;48704;50.534;6.442;2023-05-02T09:28:43;96264.75;;;8.15;100.00
62634;BME280;48704;50.534;6.442;2023-05-02T09:31:10;96274.28;;;8.14;100.00
62634;BME280;48704;50.534;6.442;2023-05-02T09:33:37;96268.06;;;8.35;100.00
62634;BME280;48704;50.534;6.442;2023-05-02T09:36:04;96264.16;;;8.20;100.00
62634;BME280;48704;50.534;6.442;2023-05-02T09:38:29;96263.59;;;8.25;100.00
62634;BME280;48704;50.534;6.442;2023-05-02T09:40:55;96264.84;;;8.11;100.00
62634;BME280;48704;50.534;6.442;2023-05-02T09:43:20;96276.06;;;8.33;100.00
62634;BME280;48704;50.534;6.442;2023-05-02T09:46:05;96273.38;;;8.89;100.00
62634;BME280;48704;50.534;6.442;2023-05-02T09:48:33;96285.06;;;9.19;100.00
62634;BME280;48704;50.534;6.442;2023-05-02T09:51:19;96289.69;;;9.00;100.00
62634;BME280;48704;50.534;6.442;2023-05-02T09:53:45;96289.22;;;8.67;100.00
62634;BME280;48704;50.534;6.442;2023-05-02T09:56:10;96287.78;;;8.62;100.00
62634;BME280;48704;50.534;6.442;2023-05-02T09:58:36;96292.78;;;8.55;100.00
62634;BME280;48704;50.534;6.442;2023-05-02T10:01:01;96288.25;;;8.23;100.00
62634;BME280;48704;50.534;6.442;2023-05-02T10:03:28;96295.66;;;8.64;100.00
62634;BME280;48704;50.534;6.442;2023-05-02T10:05:55;96295.31;;;8.75;100.00
62634;BME280;48704;50.534;6.442;2023-05-02T10:08:23;96292.28;;;9.16;100.00
62634;BME280;48704;50.534;6.442;2023-05-02T10:10:58;96297.97;;;8.91;100.00
62634;BME280;48704;50.534;6.442;2023-05-02T10:13:25;96303.22;;;10.38;100.00
62634;BME280;48704;50.534;6.442;2023-05-02T10:16:01;96295.72;;;10.75;100.00
62634;BME280;48704;50.534;6.442;2023-05-02T10:18:50;96292.75;;;9.89;100.00
62634;BME280;48704;50.534;6.442;2023-05-02T10:21:22;96300.97;;;9.93;100.00
62634;BME280;48704;50.534;6.442;2023-05-02T10:23:49;96305.06;;;9.79;100.00
62634;BME280;48704;50.534;6.442;2023-05-02T10:26:17;96297.53;;;8.80;100.00
62634;BME280;48704;50.534;6.442;2023-05-02T10:28:45;96294.91;;;8.63;100.00
62634;BME280;48704;50.534;6.442;2023-05-02T10:31:12;96309.94;;;8.53;100.00
62634;BME280;48704;50.534;6.442;2023-05-02T10:33:38;96295.28;;;8.53;100.00
62634;BME280;48704;50.534;6.442;2023-05-02T10:36:04;96303.41;;;9.16;100.00
62634;BME280;48704;50.534;6.442;2023-05-02T10:38:31;96308.84;;;9.20;100.00
62634;BME280;48704;50.534;6.442;2023-05-02T10:41:00;96307.41;;;9.15;100.00
62634;BME280;48704;50.534;6.442;2023-05-02T10:43:29;96303.44;;;9.03;100.00
62634;BME280;48704;50.534;6.442;2023-05-02T10:45:55;96307.41;;;10.12;100.00
62634;BME280;48704;50.534;6.442;2023-05-02T10:48:24;96308.75;;;10.29;100.00
62634;BME280;48704;50.534;6.442;2023-05-02T10:50:58;96306.94;;;9.82;100.00
62634;BME280;48704;50.534;6.442;2023-05-02T10:56:13;96302.63;;;9.37;100.00
62634;BME280;48704;50.534;6.442;2023-05-02T10:58:40;96300.25;;;9.49;100.00
62634;BME280;48704;50.534;6.442;2023-05-02T11:03:57;96300.56;;;11.11;100.00
62634;BME280;48704;50.534;6.442;2023-05-02T11:06:24;96299.13;;;10.88;100.00
62634;BME280;48704;50.534;6.442;2023-05-02T11:08:50;96299.44;;;10.72;100.00
62634;BME280;48704;50.534;6.442;2023-05-02T11:11:41;96295.34;;;9.84;100.00
62634;BME280;48704;50.534;6.442;2023-05-02T11:14:07;96305.97;;;8.89;100.00
62634;BME280;48704;50.534;6.442;2023-05-02T11:19:27;96299.75;;;10.25;100.00
62634;BME280;48704;50.534;6.442;2023-05-02T11:24:50;96308.19;;;9.37;100.00
62634;BME280;48704;50.534;6.442;2023-05-02T11:27:36;96318.13;;;9.91;100.00
62634;BME280;48704;50.534;6.442;2023-05-02T11:30:06;96308.03;;;10.16;100.00
62634;BME280;48704;50.534;6.442;2023-05-02T11:37:42;96300.09;;;12.19;100.00
62634;BME280;48704;50.534;6.442;2023-05-02T11:40:12;96295.25;;;11.77;100.00
62634;BME280;48704;50.534;6.442;2023-05-02T11:42:37;96300.53;;;11.02;100.00
62634;BME280;48704;50.534;6.442;2023-05-02T11:45:03;96301.00;;;9.05;100.00
62634;BME280;48704;50.534;6.442;2023-05-02T11:47:31;96305.97;;;8.89;100.00
62634;BME280;48704;50.534;6.442;2023-05-02T11:49:57;96319.25;;;8.94;100.00
62634;BME280;48704;50.534;6.442;2023-05-02T11:52:24;96315.88;;;9.33;100.00
62634;BME280;48704;50.534;6.442;2023-05-02T11:54:53;96314.97;;;10.11;100.00
62634;BME280;48704;50.534;6.442;2023-05-02T11:57:19;96320.44;;;10.55;100.00
62634;BME280;48704;50.534;6.442;2023-05-02T11:59:52;96317.38;;;10.22;100.00
62634;BME280;48704;50.534;6.442;2023-05-02T12:02:18;96328.38;;;10.25;100.00
62634;BME280;48704;50.534;6.442;2023-05-02T12:04:44;96319.75;;;11.27;100.00
62634;BME280;48704;50.534;6.442;2023-05-02T12:07:09;96325.97;;;11.86;100.00
62634;BME280;48704;50.534;6.442;2023-05-02T12:09:34;96327.00;;;10.30;100.00
62634;BME280;48704;50.534;6.442;2023-05-02T12:12:00;96320.59;;;9.89;100.00
62634;BME280;48704;50.534;6.442;2023-05-02T12:14:28;96323.78;;;10.10;100.00
62634;BME280;48704;50.534;6.442;2023-05-02T12:16:54;96325.19;;;10.45;100.00
62634;BME280;48704;50.534;6.442;2023-05-02T12:19:20;96326.16;;;10.51;100.00
62634;BME280;48704;50.534;6.442;2023-05-02T12:21:46;96335.38;;;10.88;100.00
62634;BME280;48704;50.534;6.442;2023-05-02T12:24:13;96332.78;;;11.58;100.00
62634;BME280;48704;50.534;6.442;2023-05-02T12:26:41;96331.97;;;11.94;100.00
62634;BME280;48704;50.534;6.442;2023-05-02T12:29:06;96330.19;;;12.24;100.00
62634;BME280;48704;50.534;6.442;2023-05-02T12:31:33;96337.84;;;12.80;100.00
62634;BME280;48704;50.534;6.442;2023-05-02T12:33:58;96336.72;;;12.87;100.00
62634;BME280;48704;50.534;6.442;2023-05-02T12:36:25;96341.28;;;12.51;100.00
62634;BME280;48704;50.534;6.442;2023-05-02T12:38:54;96339.88;;;12.80;100.00
62634;BME280;48704;50.534;6.442;2023-05-02T12:43:55;96345.63;;;12.76;100.00
62634;BME280;48704;50.534;6.442;2023-05-02T12:46:20;96351.91;;;12.29;100.00
62634;BME280;48704;50.534;6.442;2023-05-02T12:49:06;96352.69;;;12.62;100.00
62634;BME280;48704;50.534;6.442;2023-05-02T12:51:38;96357.13;;;11.30;100.00
62634;BME280;48704;50.534;6.442;2023-05-02T12:54:03;96351.41;;;12.39;100.00
62634;BME280;48704;50.534;6.442;2023-05-02T12:56:29;96340.84;;;11.37;100.00
62634;BME280;48704;50.534;6.442;2023-05-02T12:58:58;96354.78;;;11.28;100.00
62634;BME280;48704;50.534;6.442;2023-05-02T13:01:26;96362.31;;;10.42;100.00
62634;BME280;48704;50.534;6.442;2023-05-02T13:03:51;96349.94;;;10.34;100.00
62634;BME280;48704;50.534;6.442;2023-05-02T13:06:17;96354.22;;;10.26;100.00
62634;BME280;48704;50.534;6.442;2023-05-02T13:08:42;96365.56;;;10.41;100.00
62634;BME280;48704;50.534;6.442;2023-05-02T13:11:08;96364.09;;;10.58;100.00
62634;BME280;48704;50.534;6.442;2023-05-02T13:13:33;96364.44;;;10.29;100.00
62634;BME280;48704;50.534;6.442;2023-05-02T13:15:59;96366.00;;;10.30;100.00
62634;BME280;48704;50.534;6.442;2023-05-02T13:18:25;96371.75;;;10.85;100.00
62634;BME280;48704;50.534;6.442;2023-05-02T13:20:52;96367.69;;;10.27;100.00
62634;BME280;48704;50.534;6.442;2023-05-02T13:23:17;96368.97;;;10.76;100.00
62634;BME280;48704;50.534;6.442;2023-05-02T13:25:42;96377.09;;;11.19;100.00
62634;BME280;48704;50.534;6.442;2023-05-02T13:28:07;96380.22;;;10.23;100.00
62634;BME280;48704;50.534;6.442;2023-05-02T13:30:33;96387.00;;;9.78;100.00
62634;BME280;48704;50.534;6.442;2023-05-02T13:32:58;96381.66;;;9.62;100.00
62634;BME280;48704;50.534;6.442;2023-05-02T13:35:24;96385.19;;;10.28;100.00
62634;BME280;48704;50.534;6.442;2023-05-02T13:37:50;96375.59;;;10.29;100.00
62634;BME280;48704;50.534;6.442;2023-05-02T13:40:15;96386.84;;;10.56;100.00
62634;BME280;48704;50.534;6.442;2023-05-02T13:42:41;96386.16;;;10.43;100.00
62634;BME280;48704;50.534;6.442;2023-05-02T13:45:06;96380.25;;;10.72;100.00
62634;BME280;48704;50.534;6.442;2023-05-02T13:47:32;96388.56;;;11.21;100.00